Nekoma, North Dakota
Current Conditions -  °F | °C
As of 10:15 AM on Wednesday 28 Jan 2015 (Local Time) from KD55 Reporting Station
Moderate Fog Moderate Fog  
Wind Chill: 26°   Ceiling: 100
Heat Index: 32°   Visibility: 0mi
Dew Point: 32°   Wind: 7mph
Humidity: 100%   Direction: 360°N
Pressure: 29.76"   Gusts: NA
Location:  48.58°N, 98.37°W
Report Text: KD55 281615Z AUTO 36006KT M1/4SM FZFG OVC001 00/00 A2976 RMK AO2
Loading
Personal Weather Stations






























Interactive Weather Map New forecast layout! Learn more

10-Day Weather Forecast

Advertisements
Track Severe Weather on mobile